FW6308 Weather Reports


Display with metric or nautical units.
time (UTC)temp
F
wind
direction
speed
MPH
gust
MPH
rain 1hr
in
rain 24hr
in
rain mn
in
humidity
%
barometer
mb
20240719115606 84 142 2.0 5.0 0.00 0.14 0.14 72 1016.3
20240719114602 83 96 2.0 9.0 0.00 0.14 0.14 73 1016.3
20240719113632 83 146 3.0 9.0 0.00 0.14 0.14 73 1016.4
20240719112632 83 191 2.0 7.0 0.00 0.14 0.14 74 1016.5
20240719111602 82 121 3.0 6.0 0.00 0.14 0.14 75 1016.6
20240719110601 82 75 3.0 6.0 0.00 0.14 0.14 76 1016.6
20240719105602 81 57 3.0 7.0 0.00 0.14 0.14 76 1016.8
20240719104632 81 141 3.0 7.0 0.00 0.14 0.14 78 1016.9
20240719103632 81 142 2.0 7.0 0.00 0.14 0.14 76 1016.9
20240719102602 80 143 3.0 7.0 0.00 0.14 0.14 77 1017.0
20240719101602 80 141 2.0 7.0 0.00 0.14 0.14 78 1017.1
20240719100601 79 150 3.0 8.0 0.00 0.14 0.14 79 1017.2
20240719095602 80 137 4.0 7.0 0.00 0.14 0.14 79 1017.2
20240719094602 79 207 1.0 4.0 0.00 0.14 0.14 79 1017.2
20240719093602 79 135 1.0 3.0 0.00 0.14 0.14 77 1017.3
20240719092604 78 351 1.0 3.0 0.00 0.14 0.14 81 1017.3
20240719091601 77 213 1.0 4.0 0.00 0.14 0.14 83 1017.3
20240719090601 76 228 1.0 5.0 0.00 0.14 0.14 86 1017.3
20240719085601 76 264 2.0 5.0 0.00 0.14 0.14 88 1017.4
20240719084631 75 158 2.0 5.0 0.00 0.14 0.14 90 1017.4
20240719083637 74 196 2.0 4.0 0.00 0.14 0.14 92 1017.5
20240719082601 73 240 1.0 4.0 0.00 0.14 0.14 94 1017.5
20240719081601 73 226 2.0 4.0 0.00 0.14 0.14 94 1017.6
20240719080601 73 204 3.0 4.0 0.00 0.14 0.14 95 1017.6
20240719075602 72 242 1.0 5.0 0.00 0.14 0.14 96 1017.6
20240719074601 72 241 2.0 5.0 0.00 0.14 0.14 97 1017.6
20240719073602 71 228 1.0 3.0 0.00 0.14 0.14 98 1017.4
20240719072601 71 252 1.0 4.0 0.00 0.14 0.14 98 1017.5
20240719071601 71 195 2.0 4.0 0.00 0.14 0.14 98 1017.4
20240719070601 71 169 1.0 4.0 0.00 0.14 0.14 99 1017.3
20240719065631 70 171 2.0 5.0 0.00 0.14 0.14 98 1017.4
20240719064601 70 152 1.0 3.0 0.00 0.14 0.14 99 1017.4
20240719063633 70 151 1.0 5.0 0.00 0.14 0.14 99 1017.4
20240719062601 70 199 0.0 3.0 0.00 0.14 0.14 99 1017.4
20240719061601 70 0 0.0 0.0 0.00 0.14 0.14 99 1017.4
20240719060601 70 0 0.0 3.0 0.00 0.14 0.14 99 1017.5
20240719055601 70 206 1.0 4.0 0.00 0.14 0.14 99 1017.5
20240719054601 70 228 2.0 5.0 0.00 0.14 0.14 99 1017.6
20240719053632 70 208 2.0 5.0 0.00 0.14 0.14 99 1017.5
20240719052604 70 226 2.0 5.0 0.00 0.14 0.14 99 1017.6
20240719051603 70 222 2.0 5.0 0.00 0.14 0.14 99 1017.6
20240719050603 70 215 2.0 6.0 0.00 0.14 0.14 99 1017.5
20240719045603 70 233 3.0 6.0 0.00 0.14 0.14 99 1017.5
20240719044603 70 224 2.0 6.0 0.00 0.14 0.14 99 1017.5
20240719043603 70 194 2.0 10.0 0.00 0.14 0.14 99 1017.5
20240719042603 70 206 2.0 8.0 0.00 0.14 0.14 99 1017.4
20240719041605 70 230 3.0 7.0 0.00 0.14 0.14 99 1017.3
20240719040603 70 236 4.0 7.0 0.00 0.14 0.14 99 1017.3
20240719035604 70 209 1.0 5.0 0.00 0.14 0.14 99 1017.4
20240719034603 70 188 1.0 5.0 0.00 0.14 0.14 99 1017.4
20240719033603 70 192 2.0 5.0 0.00 0.14 0.14 99 1017.5
20240719032604 70 204 2.0 5.0 0.00 0.14 0.14 99 1017.5
20240719031603 70 210 1.0 7.0 0.00 0.14 0.14 99 1017.4
20240719030603 70 224 3.0 11.0 0.00 0.14 0.14 99 1017.3
20240719025603 70 226 2.0 11.0 0.00 0.14 0.14 99 1017.3
20240719024604 70 230 2.0 7.0 0.00 0.14 0.14 98 1017.2
20240719023603 70 222 3.0 6.0 0.00 0.14 0.14 98 1017.2
20240719022603 70 218 3.0 8.0 0.00 0.14 0.14 98 1017.2
20240719021603 70 228 4.0 9.0 0.00 0.14 0.14 98 1017.1
20240719020603 70 227 3.0 9.0 0.00 0.14 0.14 98 1017.2
20240719015603 71 217 2.0 6.0 0.00 0.14 0.14 98 1017.1
20240719014603 71 229 2.0 9.0 0.00 0.14 0.14 98 1017.2
20240719013603 71 222 4.0 9.0 0.01 0.14 0.14 98 1017.1
20240719012608 71 193 2.0 7.0 0.05 0.14 0.14 98 1017.1
20240719010607 71 258 1.0 4.0 0.08 0.14 0.14 98 1016.9
20240719005603 71 293 2.0 5.0 0.08 0.14 0.14 98 1017.2
20240719004603 71 156 3.0 6.0 0.08 0.14 0.14 98 1017.5
20240719003606 71 318 4.0 8.0 0.08 0.13 0.13 97 1016.7
20240719002633 71 152 4.0 8.0 0.04 0.09 0.09 98 1017.7
20240719001604 71 162 4.0 9.0 0.04 0.08 0.08 98 1017.6
20240719000603 71 207 3.0 11.0 0.06 0.06 0.06 97 1017.5
20240718235603 71 204 4.0 11.0 0.06 0.06 0.06 97 1017.3
20240718234603 71 227 5.0 11.0 0.06 0.06 0.06 97 1017.4
20240718233602 71 114 3.0 6.0 0.06 0.06 0.06 96 1016.5
20240718232603 71 203 2.0 12.0 0.06 0.06 0.06 96 1017.0
20240718231602 71 274 6.0 16.0 0.04 0.04 0.04 96 1017.4
20240718230635 71 217 5.0 13.0 0.00 0.00 0.00 96 1017.7
20240718225603 71 203 4.0 9.0 0.00 0.00 0.00 96 1017.5
20240718224602 71 198 3.0 8.0 0.00 0.00 0.00 96 1017.2
20240718223603 71 228 3.0 9.0 0.00 0.00 0.00 96 1017.2
20240718222602 71 233 3.0 5.0 0.00 0.00 0.00 96 1017.0
20240718221602 71 228 2.0 8.0 0.00 0.00 0.00 96 1017.1
20240718220638 0 240 4.0 10.0 0.00 0.00 0.00
20240718215633 71 233 5.0 10.0 0.00 0.00 0.00 96 1017.1
20240718214602 71 232 3.0 8.0 0.00 0.00 0.00 95 1017.3
20240718213602 71 215 3.0 7.0 0.00 0.00 0.00 95 1017.4
20240718212632 71 228 4.0 7.0 0.00 0.00 0.00 95 1017.3
20240718211603 71 232 4.0 8.0 0.00 0.00 0.00 94 1017.1
20240718210632 71 224 4.0 9.0 0.00 0.00 0.00 94 1017.2
20240718205602 72 228 4.0 8.0 0.00 0.00 0.00 94 1017.1
20240718204602 72 237 4.0 10.0 0.00 0.00 0.00 93 1017.1
20240718203602 72 240 5.0 10.0 0.00 0.00 0.00 93 1016.9
20240718202602 72 238 4.0 8.0 0.00 0.00 0.00 92 1016.9
20240718201602 72 226 3.0 8.0 0.00 0.00 0.00 91 1016.8
20240718200602 73 235 4.0 9.0 0.00 0.00 0.00 91 1016.6
20240718195602 73 238 4.0 10.0 0.00 0.00 0.00 90 1016.6
20240718194603 74 230 4.0 10.0 0.00 0.00 0.00 89 1016.5
20240718193602 74 235 6.0 12.0 0.00 0.00 0.00 88 1016.5
20240718192606 75 236 5.0 12.0 0.00 0.00 0.00 87 1016.4
20240718191602 75 246 5.0 12.0 0.00 0.00 0.00 85 1016.3
20240718190608 76 228 6.0 12.0 0.00 0.00 0.00 84 1016.3
20240718185634 77 238 7.0 12.0 0.00 0.00 0.00 83 1016.1
20240718184602 77 247 5.0 13.0 0.00 0.00 0.00 81 1016.0
20240718183602 78 247 6.0 13.0 0.00 0.00 0.00 80 1015.9
20240718182602 78 238 4.0 14.0 0.00 0.00 0.00 80 1015.8
20240718181602 79 244 7.0 14.0 0.00 0.00 0.00 79 1015.7
20240718180602 81 244 8.0 14.0 0.00 0.00 0.00 77 1015.7
20240718175601 82 242 7.0 13.0 0.00 0.00 0.00 76 1015.5
20240718174602 83 241 5.0 13.0 0.00 0.00 0.00 75 1015.5
20240718173604 84 243 5.0 13.0 0.00 0.00 0.00 74 1015.3
20240718172602 84 235 5.0 13.0 0.00 0.00 0.00 74 1015.2
20240718171602 84 237 5.0 14.0 0.00 0.00 0.00 74 1015.2
20240718170632 84 234 6.0 12.0 0.00 0.00 0.00 74 1015.1
20240718165632 84 224 6.0 15.0 0.00 0.00 0.00 74 1015.0
20240718164602 85 233 7.0 16.0 0.00 0.00 0.00 73 1015.0
20240718163602 85 231 8.0 16.0 0.00 0.00 0.00 73 1014.9
20240718162602 86 233 8.0 13.0 0.00 0.00 0.00 73 1014.9
20240718161601 86 209 5.0 13.0 0.00 0.00 0.00 72 1014.9
20240718160601 86 212 7.0 13.0 0.00 0.00 0.00 71 1014.9
20240718155602 87 237 5.0 13.0 0.00 0.00 0.00 71 1014.9
20240718154602 87 213 3.0 13.0 0.00 0.00 0.00 71 1014.8
20240718153601 88 236 4.0 14.0 0.00 0.00 0.00 71 1014.9
20240718152601 88 228 5.0 12.0 0.00 0.00 0.00 70 1014.9
20240718151632 88 249 6.0 12.0 0.00 0.00 0.00 70 1014.9
20240718150605 89 240 8.0 14.0 0.00 0.00 0.00 69 1014.9
20240718145601 89 244 7.0 13.0 0.00 0.00 0.00 69 1014.9
20240718144602 89 255 6.0 17.0 0.00 0.00 0.00 69 1014.8
20240718143601 90 230 9.0 17.0 0.00 0.00 0.00 67 1014.9
20240718142631 92 239 8.0 15.0 0.00 0.00 0.00 65 1014.9
20240718141601 93 208 4.0 9.0 0.00 0.00 0.00 57 1014.8
20240718140601 93 169 3.0 7.0 0.00 0.00 0.00 57 1014.8
20240718135601 92 116 3.0 7.0 0.00 0.00 0.00 55 1014.8
20240718134632 92 129 2.0 6.0 0.00 0.00 0.00 55 1014.7
20240718133601 92 157 3.0 6.0 0.00 0.00 0.00 56 1014.7
20240718132601 92 198 4.0 6.0 0.00 0.00 0.00 56 1014.8
20240718131601 91 159 4.0 6.0 0.00 0.00 0.00 56 1014.8
20240718130601 91 106 2.0 6.0 0.00 0.00 0.00 57 1014.9
20240718125602 90 85 3.0 6.0 0.00 0.00 0.00 58 1015.0
20240718124601 91 45 3.0 5.0 0.00 0.00 0.00 56 1015.1
20240718123601 91 132 1.0 6.0 0.00 0.00 0.00 57 1015.1
20240718122704 91 23 2.0 6.0 0.00 0.00 0.00 57 1015.2
20240718121603 90 75 2.0 5.0 0.00 0.00 0.00 58 1015.1
20240718120603 89 64 2.0 8.0 0.00 0.00 0.00 60 1015.1